sensor_id;sensor_type;location;lat;lon;timestamp;temperature;humidity
38464;DHT22;24243;51.956;5.902;2023-12-28T00:00:37;19.30;60.90
38464;DHT22;24243;51.956;5.902;2023-12-28T00:03:03;19.30;60.90
38464;DHT22;24243;51.956;5.902;2023-12-28T00:05:28;19.30;60.90
38464;DHT22;24243;51.956;5.902;2023-12-28T00:07:54;19.20;60.90
38464;DHT22;24243;51.956;5.902;2023-12-28T00:10:23;19.20;60.90
38464;DHT22;24243;51.956;5.902;2023-12-28T00:12:49;19.20;60.80
38464;DHT22;24243;51.956;5.902;2023-12-28T00:15:14;19.20;60.80
38464;DHT22;24243;51.956;5.902;2023-12-28T00:17:40;19.20;60.90
38464;DHT22;24243;51.956;5.902;2023-12-28T00:20:06;19.30;60.90
38464;DHT22;24243;51.956;5.902;2023-12-28T00:22:32;19.20;60.90
38464;DHT22;24243;51.956;5.902;2023-12-28T00:24:57;19.20;60.80
38464;DHT22;24243;51.956;5.902;2023-12-28T00:27:23;19.20;60.80
38464;DHT22;24243;51.956;5.902;2023-12-28T00:29:48;19.20;60.80
38464;DHT22;24243;51.956;5.902;2023-12-28T00:32:14;19.20;60.80
38464;DHT22;24243;51.956;5.902;2023-12-28T00:34:40;19.20;60.80
38464;DHT22;24243;51.956;5.902;2023-12-28T00:37:06;19.20;60.80
38464;DHT22;24243;51.956;5.902;2023-12-28T00:39:31;19.20;60.80
38464;DHT22;24243;51.956;5.902;2023-12-28T00:41:57;19.20;60.80
38464;DHT22;24243;51.956;5.902;2023-12-28T00:44:23;19.10;60.70
38464;DHT22;24243;51.956;5.902;2023-12-28T00:46:48;19.10;60.70
38464;DHT22;24243;51.956;5.902;2023-12-28T00:49:14;19.10;60.70
38464;DHT22;24243;51.956;5.902;2023-12-28T00:51:39;19.10;60.70
38464;DHT22;24243;51.956;5.902;2023-12-28T00:54:05;19.10;60.70
38464;DHT22;24243;51.956;5.902;2023-12-28T00:56:31;19.10;60.70
38464;DHT22;24243;51.956;5.902;2023-12-28T00:58:56;19.10;60.70
38464;DHT22;24243;51.956;5.902;2023-12-28T01:01:22;19.10;60.70
38464;DHT22;24243;51.956;5.902;2023-12-28T01:03:47;19.10;60.70
38464;DHT22;24243;51.956;5.902;2023-12-28T01:06:13;19.10;60.70
38464;DHT22;24243;51.956;5.902;2023-12-28T01:08:39;19.10;60.70
38464;DHT22;24243;51.956;5.902;2023-12-28T01:11:04;19.10;60.70
38464;DHT22;24243;51.956;5.902;2023-12-28T01:13:30;19.10;60.70
38464;DHT22;24243;51.956;5.902;2023-12-28T01:15:56;19.10;60.70
38464;DHT22;24243;51.956;5.902;2023-12-28T01:18:21;19.10;60.70
38464;DHT22;24243;51.956;5.902;2023-12-28T01:20:47;19.10;60.70
38464;DHT22;24243;51.956;5.902;2023-12-28T01:23:13;19.10;60.70
38464;DHT22;24243;51.956;5.902;2023-12-28T01:25:38;19.10;60.70
38464;DHT22;24243;51.956;5.902;2023-12-28T01:28:04;19.00;60.60
38464;DHT22;24243;51.956;5.902;2023-12-28T01:30:30;19.10;60.70
38464;DHT22;24243;51.956;5.902;2023-12-28T01:32:56;19.10;60.70
38464;DHT22;24243;51.956;5.902;2023-12-28T01:35:22;19.00;60.60
38464;DHT22;24243;51.956;5.902;2023-12-28T01:37:47;19.00;60.70
38464;DHT22;24243;51.956;5.902;2023-12-28T01:40:14;19.00;60.60
38464;DHT22;24243;51.956;5.902;2023-12-28T01:42:40;19.00;60.60
38464;DHT22;24243;51.956;5.902;2023-12-28T01:45:06;19.00;60.60
38464;DHT22;24243;51.956;5.902;2023-12-28T01:47:32;19.00;60.60
38464;DHT22;24243;51.956;5.902;2023-12-28T01:49:57;19.00;60.60
38464;DHT22;24243;51.956;5.902;2023-12-28T01:52:23;19.00;60.60
38464;DHT22;24243;51.956;5.902;2023-12-28T01:54:49;19.00;60.60
38464;DHT22;24243;51.956;5.902;2023-12-28T01:57:15;19.00;60.60
38464;DHT22;24243;51.956;5.902;2023-12-28T01:59:42;19.00;60.60
38464;DHT22;24243;51.956;5.902;2023-12-28T02:02:08;19.00;60.60
38464;DHT22;24243;51.956;5.902;2023-12-28T02:04:33;19.00;60.60
38464;DHT22;24243;51.956;5.902;2023-12-28T02:06:59;19.00;60.60
38464;DHT22;24243;51.956;5.902;2023-12-28T02:09:25;19.00;60.60
38464;DHT22;24243;51.956;5.902;2023-12-28T02:11:51;19.00;60.60
38464;DHT22;24243;51.956;5.902;2023-12-28T02:14:17;19.00;60.60
38464;DHT22;24243;51.956;5.902;2023-12-28T02:16:47;18.90;60.50
38464;DHT22;24243;51.956;5.902;2023-12-28T02:19:18;18.90;60.50
38464;DHT22;24243;51.956;5.902;2023-12-28T02:21:48;18.90;60.50
38464;DHT22;24243;51.956;5.902;2023-12-28T02:24:14;19.00;60.60
38464;DHT22;24243;51.956;5.902;2023-12-28T02:26:39;18.90;60.50
38464;DHT22;24243;51.956;5.902;2023-12-28T02:29:05;18.90;60.50
38464;DHT22;24243;51.956;5.902;2023-12-28T02:31:32;19.00;60.60
38464;DHT22;24243;51.956;5.902;2023-12-28T02:34:04;18.90;60.50
38464;DHT22;24243;51.956;5.902;2023-12-28T02:36:30;18.90;60.50
38464;DHT22;24243;51.956;5.902;2023-12-28T02:38:57;18.90;60.50
38464;DHT22;24243;51.956;5.902;2023-12-28T02:41:24;19.00;60.60
38464;DHT22;24243;51.956;5.902;2023-12-28T02:43:50;18.90;60.50
38464;DHT22;24243;51.956;5.902;2023-12-28T02:46:16;18.90;60.50
38464;DHT22;24243;51.956;5.902;2023-12-28T02:48:41;18.90;60.50
38464;DHT22;24243;51.956;5.902;2023-12-28T02:51:07;18.90;60.50
38464;DHT22;24243;51.956;5.902;2023-12-28T02:53:33;18.90;60.50
38464;DHT22;24243;51.956;5.902;2023-12-28T02:55:58;18.90;60.50
38464;DHT22;24243;51.956;5.902;2023-12-28T02:58:24;18.90;60.50
38464;DHT22;24243;51.956;5.902;2023-12-28T03:00:50;18.90;60.50
38464;DHT22;24243;51.956;5.902;2023-12-28T03:03:16;18.90;60.50
38464;DHT22;24243;51.956;5.902;2023-12-28T03:05:41;18.90;60.50
38464;DHT22;24243;51.956;5.902;2023-12-28T03:08:07;18.90;60.50
38464;DHT22;24243;51.956;5.902;2023-12-28T03:10:32;18.90;60.50
38464;DHT22;24243;51.956;5.902;2023-12-28T03:12:58;18.90;60.50
38464;DHT22;24243;51.956;5.902;2023-12-28T03:15:24;18.80;60.40
38464;DHT22;24243;51.956;5.902;2023-12-28T03:17:49;18.90;60.50
38464;DHT22;24243;51.956;5.902;2023-12-28T03:20:15;18.90;60.50
38464;DHT22;24243;51.956;5.902;2023-12-28T03:22:41;18.80;60.40
38464;DHT22;24243;51.956;5.902;2023-12-28T03:25:06;18.80;60.40
38464;DHT22;24243;51.956;5.902;2023-12-28T03:27:32;18.80;60.40
38464;DHT22;24243;51.956;5.902;2023-12-28T03:29:58;18.80;60.40
38464;DHT22;24243;51.956;5.902;2023-12-28T03:32:23;18.80;60.40
38464;DHT22;24243;51.956;5.902;2023-12-28T03:34:49;18.80;60.40
38464;DHT22;24243;51.956;5.902;2023-12-28T03:37:14;18.80;61.10
38464;DHT22;24243;51.956;5.902;2023-12-28T03:39:40;18.80;60.40
38464;DHT22;24243;51.956;5.902;2023-12-28T03:42:06;18.80;60.40
38464;DHT22;24243;51.956;5.902;2023-12-28T03:44:32;18.80;60.40
38464;DHT22;24243;51.956;5.902;2023-12-28T03:46:57;18.80;60.40
38464;DHT22;24243;51.956;5.902;2023-12-28T03:49:23;18.80;60.40
38464;DHT22;24243;51.956;5.902;2023-12-28T03:51:49;18.80;60.40
38464;DHT22;24243;51.956;5.902;2023-12-28T03:54:18;18.80;60.40
38464;DHT22;24243;51.956;5.902;2023-12-28T03:56:47;18.80;60.50
38464;DHT22;24243;51.956;5.902;2023-12-28T03:59:13;18.80;60.40
38464;DHT22;24243;51.956;5.902;2023-12-28T04:01:40;18.80;60.40
38464;DHT22;24243;51.956;5.902;2023-12-28T04:04:06;18.80;60.40
38464;DHT22;24243;51.956;5.902;2023-12-28T04:06:31;18.80;60.40
38464;DHT22;24243;51.956;5.902;2023-12-28T04:08:57;18.80;60.40
38464;DHT22;24243;51.956;5.902;2023-12-28T04:11:23;18.80;60.40
38464;DHT22;24243;51.956;5.902;2023-12-28T04:13:49;18.80;60.40
38464;DHT22;24243;51.956;5.902;2023-12-28T04:16:14;18.80;60.40
38464;DHT22;24243;51.956;5.902;2023-12-28T04:18:41;18.80;60.40
38464;DHT22;24243;51.956;5.902;2023-12-28T04:21:13;18.70;60.40
38464;DHT22;24243;51.956;5.902;2023-12-28T04:23:39;18.80;60.40
38464;DHT22;24243;51.956;5.902;2023-12-28T04:26:05;18.80;60.40
38464;DHT22;24243;51.956;5.902;2023-12-28T04:28:31;18.80;60.40
38464;DHT22;24243;51.956;5.902;2023-12-28T04:30:56;18.80;60.40
38464;DHT22;24243;51.956;5.902;2023-12-28T04:33:22;18.70;60.40
38464;DHT22;24243;51.956;5.902;2023-12-28T04:35:48;18.80;60.40
38464;DHT22;24243;51.956;5.902;2023-12-28T04:38:14;18.80;60.40
38464;DHT22;24243;51.956;5.902;2023-12-28T04:40:40;18.80;60.40
38464;DHT22;24243;51.956;5.902;2023-12-28T04:43:06;18.80;60.40
38464;DHT22;24243;51.956;5.902;2023-12-28T04:45:32;18.70;60.30
38464;DHT22;24243;51.956;5.902;2023-12-28T04:47:58;18.80;60.40
38464;DHT22;24243;51.956;5.902;2023-12-28T04:50:24;18.80;60.40
38464;DHT22;24243;51.956;5.902;2023-12-28T04:52:49;18.70;60.40
38464;DHT22;24243;51.956;5.902;2023-12-28T04:55:15;18.70;60.30
38464;DHT22;24243;51.956;5.902;2023-12-28T04:57:41;18.70;60.30
38464;DHT22;24243;51.956;5.902;2023-12-28T05:00:07;18.70;60.30
38464;DHT22;24243;51.956;5.902;2023-12-28T05:02:33;18.70;60.30
38464;DHT22;24243;51.956;5.902;2023-12-28T05:04:59;18.70;60.30
38464;DHT22;24243;51.956;5.902;2023-12-28T05:07:25;18.70;60.30
38464;DHT22;24243;51.956;5.902;2023-12-28T05:09:51;18.70;60.30
38464;DHT22;24243;51.956;5.902;2023-12-28T05:12:16;18.70;60.30
38464;DHT22;24243;51.956;5.902;2023-12-28T05:14:42;18.70;60.30
38464;DHT22;24243;51.956;5.902;2023-12-28T05:17:07;18.70;60.30
38464;DHT22;24243;51.956;5.902;2023-12-28T05:19:33;18.70;60.30
38464;DHT22;24243;51.956;5.902;2023-12-28T05:21:59;18.70;60.30
38464;DHT22;24243;51.956;5.902;2023-12-28T05:24:28;18.70;60.30
38464;DHT22;24243;51.956;5.902;2023-12-28T05:26:54;18.70;60.30
38464;DHT22;24243;51.956;5.902;2023-12-28T05:29:19;18.70;60.30
38464;DHT22;24243;51.956;5.902;2023-12-28T05:31:45;18.70;60.30
38464;DHT22;24243;51.956;5.902;2023-12-28T05:34:10;18.70;60.30
38464;DHT22;24243;51.956;5.902;2023-12-28T05:36:36;18.70;60.30
38464;DHT22;24243;51.956;5.902;2023-12-28T05:39:02;18.70;60.30
38464;DHT22;24243;51.956;5.902;2023-12-28T05:41:29;18.70;60.30
38464;DHT22;24243;51.956;5.902;2023-12-28T05:43:55;18.70;60.30
38464;DHT22;24243;51.956;5.902;2023-12-28T05:46:20;18.70;60.30
38464;DHT22;24243;51.956;5.902;2023-12-28T05:48:47;18.70;60.30
38464;DHT22;24243;51.956;5.902;2023-12-28T05:51:13;18.70;60.30
38464;DHT22;24243;51.956;5.902;2023-12-28T05:53:38;18.70;60.30
38464;DHT22;24243;51.956;5.902;2023-12-28T05:56:04;18.70;60.30
38464;DHT22;24243;51.956;5.902;2023-12-28T05:58:30;18.70;60.30
38464;DHT22;24243;51.956;5.902;2023-12-28T06:00:56;18.70;60.30
38464;DHT22;24243;51.956;5.902;2023-12-28T06:03:21;18.70;60.20
38464;DHT22;24243;51.956;5.902;2023-12-28T06:05:47;18.70;60.30
38464;DHT22;24243;51.956;5.902;2023-12-28T06:08:13;18.70;60.30
38464;DHT22;24243;51.956;5.902;2023-12-28T06:10:39;18.70;60.30
38464;DHT22;24243;51.956;5.902;2023-12-28T06:13:05;18.70;60.30
38464;DHT22;24243;51.956;5.902;2023-12-28T06:15:31;18.70;60.30
38464;DHT22;24243;51.956;5.902;2023-12-28T06:17:58;18.70;60.30
38464;DHT22;24243;51.956;5.902;2023-12-28T06:20:24;18.70;60.30
38464;DHT22;24243;51.956;5.902;2023-12-28T06:22:49;18.70;60.20
38464;DHT22;24243;51.956;5.902;2023-12-28T06:25:15;18.70;60.20
38464;DHT22;24243;51.956;5.902;2023-12-28T06:27:43;18.70;60.20
38464;DHT22;24243;51.956;5.902;2023-12-28T06:30:09;18.70;60.20
38464;DHT22;24243;51.956;5.902;2023-12-28T06:32:35;18.70;60.20
38464;DHT22;24243;51.956;5.902;2023-12-28T06:35:00;18.70;60.20
38464;DHT22;24243;51.956;5.902;2023-12-28T06:37:26;18.70;60.20
38464;DHT22;24243;51.956;5.902;2023-12-28T06:39:52;18.70;60.20
38464;DHT22;24243;51.956;5.902;2023-12-28T06:42:17;18.70;60.20
38464;DHT22;24243;51.956;5.902;2023-12-28T06:44:43;18.70;60.20
38464;DHT22;24243;51.956;5.902;2023-12-28T06:47:08;18.70;60.20
38464;DHT22;24243;51.956;5.902;2023-12-28T06:49:34;18.70;60.20
38464;DHT22;24243;51.956;5.902;2023-12-28T06:52:00;18.70;60.20
38464;DHT22;24243;51.956;5.902;2023-12-28T06:54:26;18.70;60.20
38464;DHT22;24243;51.956;5.902;2023-12-28T06:56:51;18.70;60.20
38464;DHT22;24243;51.956;5.902;2023-12-28T06:59:17;18.70;60.20
38464;DHT22;24243;51.956;5.902;2023-12-28T07:01:43;18.70;60.20
38464;DHT22;24243;51.956;5.902;2023-12-28T07:04:09;18.60;60.10
38464;DHT22;24243;51.956;5.902;2023-12-28T07:06:35;18.60;60.10
38464;DHT22;24243;51.956;5.902;2023-12-28T07:09:01;18.70;60.20
38464;DHT22;24243;51.956;5.902;2023-12-28T07:11:27;18.70;60.20
38464;DHT22;24243;51.956;5.902;2023-12-28T07:13:53;18.60;60.10
38464;DHT22;24243;51.956;5.902;2023-12-28T07:16:18;18.70;60.20
38464;DHT22;24243;51.956;5.902;2023-12-28T07:18:44;18.60;60.10
38464;DHT22;24243;51.956;5.902;2023-12-28T07:21:10;18.60;60.10
38464;DHT22;24243;51.956;5.902;2023-12-28T07:23:36;18.60;60.10
38464;DHT22;24243;51.956;5.902;2023-12-28T07:26:01;18.60;60.10
38464;DHT22;24243;51.956;5.902;2023-12-28T07:28:27;18.60;60.10
38464;DHT22;24243;51.956;5.902;2023-12-28T07:30:53;18.60;60.10
38464;DHT22;24243;51.956;5.902;2023-12-28T07:33:18;18.60;60.10
38464;DHT22;24243;51.956;5.902;2023-12-28T07:35:44;18.60;60.10
38464;DHT22;24243;51.956;5.902;2023-12-28T07:38:10;18.60;60.10
38464;DHT22;24243;51.956;5.902;2023-12-28T07:40:36;18.60;60.10
38464;DHT22;24243;51.956;5.902;2023-12-28T07:43:01;18.60;60.10
38464;DHT22;24243;51.956;5.902;2023-12-28T07:45:27;18.60;60.10
38464;DHT22;24243;51.956;5.902;2023-12-28T07:47:52;18.60;60.10
38464;DHT22;24243;51.956;5.902;2023-12-28T07:50:18;18.60;60.10
38464;DHT22;24243;51.956;5.902;2023-12-28T07:52:44;18.60;60.10
38464;DHT22;24243;51.956;5.902;2023-12-28T07:55:10;18.60;60.10
38464;DHT22;24243;51.956;5.902;2023-12-28T07:57:36;18.60;60.10
38464;DHT22;24243;51.956;5.902;2023-12-28T08:00:02;18.60;60.10
38464;DHT22;24243;51.956;5.902;2023-12-28T08:02:29;18.60;60.10
38464;DHT22;24243;51.956;5.902;2023-12-28T08:04:54;18.60;60.10
38464;DHT22;24243;51.956;5.902;2023-12-28T08:07:20;18.60;60.10
38464;DHT22;24243;51.956;5.902;2023-12-28T08:09:45;18.60;60.10
38464;DHT22;24243;51.956;5.902;2023-12-28T08:12:11;18.60;60.10
38464;DHT22;24243;51.956;5.902;2023-12-28T08:14:37;18.60;60.10
38464;DHT22;24243;51.956;5.902;2023-12-28T08:17:02;18.60;60.80
38464;DHT22;24243;51.956;5.902;2023-12-28T08:19:28;18.60;60.10
38464;DHT22;24243;51.956;5.902;2023-12-28T08:21:54;18.60;60.10
38464;DHT22;24243;51.956;5.902;2023-12-28T08:24:20;18.60;60.10
38464;DHT22;24243;51.956;5.902;2023-12-28T08:26:45;18.60;60.10
38464;DHT22;24243;51.956;5.902;2023-12-28T08:29:11;18.60;60.10
38464;DHT22;24243;51.956;5.902;2023-12-28T08:31:37;18.60;60.10
38464;DHT22;24243;51.956;5.902;2023-12-28T08:34:02;18.60;60.10
38464;DHT22;24243;51.956;5.902;2023-12-28T08:36:28;18.60;60.20
38464;DHT22;24243;51.956;5.902;2023-12-28T08:38:54;18.60;60.80
38464;DHT22;24243;51.956;5.902;2023-12-28T08:41:23;18.60;60.20
38464;DHT22;24243;51.956;5.902;2023-12-28T08:43:49;18.70;60.20
38464;DHT22;24243;51.956;5.902;2023-12-28T08:46:15;18.70;60.20
38464;DHT22;24243;51.956;5.902;2023-12-28T08:48:41;18.70;60.30
38464;DHT22;24243;51.956;5.902;2023-12-28T08:51:08;18.70;60.30
38464;DHT22;24243;51.956;5.902;2023-12-28T08:53:34;18.70;60.30
38464;DHT22;24243;51.956;5.902;2023-12-28T08:56:00;18.70;60.30
38464;DHT22;24243;51.956;5.902;2023-12-28T08:58:25;18.70;60.30
38464;DHT22;24243;51.956;5.902;2023-12-28T09:00:51;18.70;60.30
38464;DHT22;24243;51.956;5.902;2023-12-28T09:03:16;18.70;60.30
38464;DHT22;24243;51.956;5.902;2023-12-28T09:05:42;18.70;60.30
38464;DHT22;24243;51.956;5.902;2023-12-28T09:08:08;18.70;60.30
38464;DHT22;24243;51.956;5.902;2023-12-28T09:10:34;18.70;60.30
38464;DHT22;24243;51.956;5.902;2023-12-28T09:13:00;18.70;60.30
38464;DHT22;24243;51.956;5.902;2023-12-28T09:15:25;18.70;60.30
38464;DHT22;24243;51.956;5.902;2023-12-28T09:17:51;18.70;60.30
38464;DHT22;24243;51.956;5.902;2023-12-28T09:20:18;18.70;60.30
38464;DHT22;24243;51.956;5.902;2023-12-28T09:22:43;18.70;60.30
38464;DHT22;24243;51.956;5.902;2023-12-28T09:25:09;18.70;60.30
38464;DHT22;24243;51.956;5.902;2023-12-28T09:27:35;18.70;60.40
38464;DHT22;24243;51.956;5.902;2023-12-28T09:30:00;18.70;60.40
38464;DHT22;24243;51.956;5.902;2023-12-28T09:32:26;18.70;60.40
38464;DHT22;24243;51.956;5.902;2023-12-28T09:34:51;18.70;60.40
38464;DHT22;24243;51.956;5.902;2023-12-28T09:37:17;18.70;60.40
38464;DHT22;24243;51.956;5.902;2023-12-28T09:39:42;18.70;60.40
38464;DHT22;24243;51.956;5.902;2023-12-28T09:42:19;18.70;60.60
38464;DHT22;24243;51.956;5.902;2023-12-28T09:44:48;18.70;60.40
38464;DHT22;24243;51.956;5.902;2023-12-28T09:47:14;18.70;60.40
38464;DHT22;24243;51.956;5.902;2023-12-28T09:49:40;18.70;60.50
38464;DHT22;24243;51.956;5.902;2023-12-28T09:52:07;18.80;60.50
38464;DHT22;24243;51.956;5.902;2023-12-28T09:54:33;18.70;60.50
38464;DHT22;24243;51.956;5.902;2023-12-28T09:56:59;18.70;60.50
38464;DHT22;24243;51.956;5.902;2023-12-28T09:59:25;18.80;60.60
38464;DHT22;24243;51.956;5.902;2023-12-28T10:01:52;18.80;60.60
38464;DHT22;24243;51.956;5.902;2023-12-28T10:04:20;18.80;60.70
38464;DHT22;24243;51.956;5.902;2023-12-28T10:06:46;18.80;60.70
38464;DHT22;24243;51.956;5.902;2023-12-28T10:09:12;18.80;60.70
38464;DHT22;24243;51.956;5.902;2023-12-28T10:11:38;18.80;60.70
38464;DHT22;24243;51.956;5.902;2023-12-28T10:14:04;18.80;60.70
38464;DHT22;24243;51.956;5.902;2023-12-28T10:16:30;18.80;60.60
38464;DHT22;24243;51.956;5.902;2023-12-28T10:18:56;18.80;60.60
38464;DHT22;24243;51.956;5.902;2023-12-28T10:21:23;18.80;60.60
38464;DHT22;24243;51.956;5.902;2023-12-28T10:23:48;18.80;60.60
38464;DHT22;24243;51.956;5.902;2023-12-28T10:26:17;18.80;60.60
38464;DHT22;24243;51.956;5.902;2023-12-28T10:28:43;18.80;60.60
38464;DHT22;24243;51.956;5.902;2023-12-28T10:31:09;18.80;60.60
38464;DHT22;24243;51.956;5.902;2023-12-28T10:33:35;18.80;60.60
38464;DHT22;24243;51.956;5.902;2023-12-28T10:36:03;18.80;60.70
38464;DHT22;24243;51.956;5.902;2023-12-28T10:38:31;18.80;60.70
38464;DHT22;24243;51.956;5.902;2023-12-28T10:40:59;18.80;60.70
38464;DHT22;24243;51.956;5.902;2023-12-28T10:43:25;18.80;60.60
38464;DHT22;24243;51.956;5.902;2023-12-28T10:45:51;18.80;60.60
38464;DHT22;24243;51.956;5.902;2023-12-28T10:48:21;18.90;60.70
38464;DHT22;24243;51.956;5.902;2023-12-28T10:50:50;18.80;60.70
38464;DHT22;24243;51.956;5.902;2023-12-28T10:53:21;18.80;60.60
38464;DHT22;24243;51.956;5.902;2023-12-28T10:55:53;18.90;60.70
38464;DHT22;24243;51.956;5.902;2023-12-28T10:58:24;18.90;60.70
38464;DHT22;24243;51.956;5.902;2023-12-28T11:00:56;18.90;60.70
38464;DHT22;24243;51.956;5.902;2023-12-28T11:03:27;18.90;60.70
38464;DHT22;24243;51.956;5.902;2023-12-28T11:05:53;18.90;60.70
38464;DHT22;24243;51.956;5.902;2023-12-28T11:08:19;18.90;60.60
38464;DHT22;24243;51.956;5.902;2023-12-28T11:10:44;18.90;60.70
38464;DHT22;24243;51.956;5.902;2023-12-28T11:13:11;18.90;60.60
38464;DHT22;24243;51.956;5.902;2023-12-28T11:15:38;18.90;60.60
38464;DHT22;24243;51.956;5.902;2023-12-28T11:18:03;18.90;60.60
38464;DHT22;24243;51.956;5.902;2023-12-28T11:20:29;18.90;60.70
38464;DHT22;24243;51.956;5.902;2023-12-28T11:22:55;18.90;60.60
38464;DHT22;24243;51.956;5.902;2023-12-28T11:25:21;18.90;60.60
38464;DHT22;24243;51.956;5.902;2023-12-28T11:27:46;18.90;60.60
38464;DHT22;24243;51.956;5.902;2023-12-28T11:30:12;18.90;60.60
38464;DHT22;24243;51.956;5.902;2023-12-28T11:32:42;18.90;60.60
38464;DHT22;24243;51.956;5.902;2023-12-28T11:35:10;18.90;60.60
38464;DHT22;24243;51.956;5.902;2023-12-28T11:37:36;18.90;60.70
38464;DHT22;24243;51.956;5.902;2023-12-28T11:40:11;18.90;60.60
38464;DHT22;24243;51.956;5.902;2023-12-28T11:42:37;18.90;60.60
38464;DHT22;24243;51.956;5.902;2023-12-28T11:45:12;18.90;60.60
38464;DHT22;24243;51.956;5.902;2023-12-28T11:47:38;18.90;60.60
38464;DHT22;24243;51.956;5.902;2023-12-28T11:50:07;18.90;60.60
38464;DHT22;24243;51.956;5.902;2023-12-28T11:52:32;18.90;60.60
38464;DHT22;24243;51.956;5.902;2023-12-28T11:54:59;18.90;60.60
38464;DHT22;24243;51.956;5.902;2023-12-28T11:57:25;18.90;60.60
38464;DHT22;24243;51.956;5.902;2023-12-28T11:59:58;18.90;60.60
38464;DHT22;24243;51.956;5.902;2023-12-28T12:02:24;18.90;60.50
38464;DHT22;24243;51.956;5.902;2023-12-28T12:04:50;18.90;60.60
38464;DHT22;24243;51.956;5.902;2023-12-28T12:07:16;18.90;60.50
38464;DHT22;24243;51.956;5.902;2023-12-28T12:09:42;18.90;60.50
38464;DHT22;24243;51.956;5.902;2023-12-28T12:12:08;18.90;60.50
38464;DHT22;24243;51.956;5.902;2023-12-28T12:14:34;18.90;60.50
38464;DHT22;24243;51.956;5.902;2023-12-28T12:17:02;18.90;60.50
38464;DHT22;24243;51.956;5.902;2023-12-28T12:19:28;18.90;60.50
38464;DHT22;24243;51.956;5.902;2023-12-28T12:21:55;18.90;60.50
38464;DHT22;24243;51.956;5.902;2023-12-28T12:24:21;18.90;60.40
38464;DHT22;24243;51.956;5.902;2023-12-28T12:26:47;18.90;60.40
38464;DHT22;24243;51.956;5.902;2023-12-28T12:29:13;18.90;60.40
38464;DHT22;24243;51.956;5.902;2023-12-28T12:31:39;18.90;60.40
38464;DHT22;24243;51.956;5.902;2023-12-28T12:34:10;18.90;60.40
38464;DHT22;24243;51.956;5.902;2023-12-28T12:36:36;18.90;60.40
38464;DHT22;24243;51.956;5.902;2023-12-28T12:39:02;18.90;60.40
38464;DHT22;24243;51.956;5.902;2023-12-28T12:41:32;18.90;60.40
38464;DHT22;24243;51.956;5.902;2023-12-28T12:43:58;18.90;60.40
38464;DHT22;24243;51.956;5.902;2023-12-28T12:46:24;18.90;60.40
38464;DHT22;24243;51.956;5.902;2023-12-28T12:48:54;18.90;60.40
38464;DHT22;24243;51.956;5.902;2023-12-28T12:51:20;18.80;60.30
38464;DHT22;24243;51.956;5.902;2023-12-28T12:53:46;18.90;60.40
38464;DHT22;24243;51.956;5.902;2023-12-28T12:56:11;18.90;60.30
38464;DHT22;24243;51.956;5.902;2023-12-28T12:58:37;18.90;60.30
38464;DHT22;24243;51.956;5.902;2023-12-28T13:01:03;18.90;60.30
38464;DHT22;24243;51.956;5.902;2023-12-28T13:03:28;18.80;60.30
38464;DHT22;24243;51.956;5.902;2023-12-28T13:05:55;18.90;60.30
38464;DHT22;24243;51.956;5.902;2023-12-28T13:08:21;18.80;60.20
38464;DHT22;24243;51.956;5.902;2023-12-28T13:10:47;18.90;60.30
38464;DHT22;24243;51.956;5.902;2023-12-28T13:13:13;18.90;60.30
38464;DHT22;24243;51.956;5.902;2023-12-28T13:15:38;18.80;60.30
38464;DHT22;24243;51.956;5.902;2023-12-28T13:18:05;18.80;60.20
38464;DHT22;24243;51.956;5.902;2023-12-28T13:20:31;18.90;60.30
38464;DHT22;24243;51.956;5.902;2023-12-28T13:22:56;18.80;60.30
38464;DHT22;24243;51.956;5.902;2023-12-28T13:25:22;18.80;60.30
38464;DHT22;24243;51.956;5.902;2023-12-28T13:27:48;18.80;60.30
38464;DHT22;24243;51.956;5.902;2023-12-28T13:30:14;18.90;60.40
38464;DHT22;24243;51.956;5.902;2023-12-28T13:32:40;18.90;60.40
38464;DHT22;24243;51.956;5.902;2023-12-28T13:35:05;18.90;60.50
38464;DHT22;24243;51.956;5.902;2023-12-28T13:37:32;18.90;60.50
38464;DHT22;24243;51.956;5.902;2023-12-28T13:39:57;18.90;60.60
38464;DHT22;24243;51.956;5.902;2023-12-28T13:42:23;18.90;60.60
38464;DHT22;24243;51.956;5.902;2023-12-28T13:44:48;18.90;60.60
38464;DHT22;24243;51.956;5.902;2023-12-28T13:47:15;19.00;60.70
38464;DHT22;24243;51.956;5.902;2023-12-28T13:49:40;19.00;60.70
38464;DHT22;24243;51.956;5.902;2023-12-28T13:52:06;18.90;60.70
38464;DHT22;24243;51.956;5.902;2023-12-28T13:54:32;19.00;60.80
38464;DHT22;24243;51.956;5.902;2023-12-28T13:56:58;19.00;60.80
38464;DHT22;24243;51.956;5.902;2023-12-28T13:59:24;19.00;60.80
38464;DHT22;24243;51.956;5.902;2023-12-28T14:01:50;19.00;60.90
38464;DHT22;24243;51.956;5.902;2023-12-28T14:04:16;19.00;60.90
38464;DHT22;24243;51.956;5.902;2023-12-28T14:06:41;19.00;60.90
38464;DHT22;24243;51.956;5.902;2023-12-28T14:09:07;19.10;60.90
38464;DHT22;24243;51.956;5.902;2023-12-28T14:11:33;19.10;60.90
38464;DHT22;24243;51.956;5.902;2023-12-28T14:13:59;19.10;60.90
38464;DHT22;24243;51.956;5.902;2023-12-28T14:16:25;19.10;60.90
38464;DHT22;24243;51.956;5.902;2023-12-28T14:18:50;19.10;60.90
38464;DHT22;24243;51.956;5.902;2023-12-28T14:21:17;19.10;60.90
38464;DHT22;24243;51.956;5.902;2023-12-28T14:23:43;19.10;60.90
38464;DHT22;24243;51.956;5.902;2023-12-28T14:26:13;19.10;60.90
38464;DHT22;24243;51.956;5.902;2023-12-28T14:28:41;19.20;61.00
38464;DHT22;24243;51.956;5.902;2023-12-28T14:31:08;19.20;61.00
38464;DHT22;24243;51.956;5.902;2023-12-28T14:33:34;19.20;61.00
38464;DHT22;24243;51.956;5.902;2023-12-28T14:36:00;19.20;60.90
38464;DHT22;24243;51.956;5.902;2023-12-28T14:38:26;19.20;60.90
38464;DHT22;24243;51.956;5.902;2023-12-28T14:40:52;19.20;60.90
38464;DHT22;24243;51.956;5.902;2023-12-28T14:43:17;19.20;60.90
38464;DHT22;24243;51.956;5.902;2023-12-28T14:45:43;19.20;60.90
38464;DHT22;24243;51.956;5.902;2023-12-28T14:48:10;19.20;60.90
38464;DHT22;24243;51.956;5.902;2023-12-28T14:50:35;19.20;60.90
38464;DHT22;24243;51.956;5.902;2023-12-28T14:53:01;19.20;60.90
38464;DHT22;24243;51.956;5.902;2023-12-28T14:55:26;19.20;60.90
38464;DHT22;24243;51.956;5.902;2023-12-28T14:57:53;19.20;60.90
38464;DHT22;24243;51.956;5.902;2023-12-28T15:00:19;19.20;60.90
38464;DHT22;24243;51.956;5.902;2023-12-28T15:02:44;19.20;60.90
38464;DHT22;24243;51.956;5.902;2023-12-28T15:05:10;19.30;61.00
38464;DHT22;24243;51.956;5.902;2023-12-28T15:07:38;19.20;60.90
38464;DHT22;24243;51.956;5.902;2023-12-28T15:10:03;19.30;61.00
38464;DHT22;24243;51.956;5.902;2023-12-28T15:12:29;19.30;61.00
38464;DHT22;24243;51.956;5.902;2023-12-28T15:14:55;19.20;61.00
38464;DHT22;24243;51.956;5.902;2023-12-28T15:17:21;19.30;61.00
38464;DHT22;24243;51.956;5.902;2023-12-28T15:19:47;19.30;61.10
38464;DHT22;24243;51.956;5.902;2023-12-28T15:22:13;19.20;61.00